METAR Data
IDs: Format: Raw Decoded Include TAF

Data at: 0138 UTC 06 Dec 2019

KSYI 060135Z AUTO 11003KT 10SM FEW095 SCT120 08/03 A3012 RMK A01
KSYI 060115Z AUTO 00000KT 10SM CLR 07/03 A3012 RMK A01
KSYI 060055Z AUTO 00000KT 10SM CLR 09/02 A3011 RMK A01
KSYI 060035Z AUTO 00000KT 10SM CLR 08/02 A3011 RMK A01
KSYI 060015Z AUTO 00000KT 10SM CLR 08/03 A3011 RMK A01
KSYI 052355Z AUTO 19003KT 10SM CLR 08/02 A3011 RMK A01
KSYI 052335Z AUTO 16003KT 10SM FEW120 08/01 A3010 RMK A01
KSYI 052315Z AUTO 00000KT 10SM FEW110 10/01 A3010 RMK A01
KSYI 052255Z AUTO 00000KT 10SM CLR 10/00 A3010 RMK A01
KSYI 052235Z AUTO 19003KT 10SM CLR 14/M01 A3009 RMK A01
KSYI 052215Z AUTO 00000KT 9SM CLR 14/M01 A3009 RMK A01
KSYI 052155Z AUTO 22004KT 10SM CLR 15/M00 A3009 RMK A01
KSYI 052135Z AUTO 22005KT 10SM CLR 15/M01 A3009 RMK A01
KSYI 052115Z AUTO 20004KT 10SM CLR 16/M01 A3009 RMK A01
KSYI 052055Z AUTO 23007KT 10SM CLR 17/M00 A3009 RMK A01
KSYI 052035Z AUTO 19005KT 10SM CLR 17/M01 A3009 RMK A01
KSYI 052015Z AUTO 24006KT 10SM CLR 17/M01 A3009 RMK A01
KSYI 051955Z AUTO 21005KT 10SM CLR 16/M01 A3010 RMK A01
KSYI 051935Z AUTO 20007KT 10SM CLR 17/M00 A3010 RMK A01
KSYI 051915Z AUTO 19004KT 10SM CLR 16/M01 A3010 RMK A01
KSYI 051855Z AUTO VRB04KT 10SM CLR 16/M01 A3011 RMK A01
KSYI 051835Z AUTO 00000KT 10SM CLR 16/M01 A3011 RMK A01
KSYI 051815Z AUTO 22005KT 10SM CLR 15/00 A3012 RMK A01
KSYI 051755Z AUTO VRB04KT 10SM CLR 15/01 A3013 RMK A01
KSYI 051735Z AUTO VRB05KT 10SM CLR 14/01 A3014 RMK A01
KSYI 051715Z AUTO 17007KT 10SM CLR 14/00 A3014 RMK A01
KSYI 051655Z AUTO 15006KT 10SM CLR 13/M00 A3015 RMK A01
KSYI 051615Z AUTO 13006KT 10SM 11/01 A3016 RMK A01
KSYI 051555Z AUTO 00000KT 10SM 09/03 A3017 RMK A01
KSYI 051535Z AUTO 00000KT 10SM CLR 07/03 A3017 RMK A01
KSYI 051515Z AUTO 00000KT 10SM CLR 07/03 A3017 RMK A01
KSYI 051455Z AUTO 00000KT 10SM CLR 05/02 A3016 RMK A01
KSYI 051435Z AUTO 00000KT 10SM CLR 04/02 A3015 RMK A01
KSYI 051415Z AUTO 11003KT 10SM CLR 03/01 A3014 RMK A01
KSYI 051355Z AUTO 09003KT 10SM CLR 01/M00 A3013 RMK A01
KSYI 051335Z AUTO 00000KT 10SM CLR 00/M00 A3012 RMK A01
KSYI 051315Z AUTO 00000KT 10SM CLR M00/M01 A3012 RMK A01
KSYI 051255Z AUTO 00000KT 10SM CLR M00/M01 A3011 RMK A01
KSYI 051235Z AUTO 00000KT 10SM CLR M00/M01 A3010 RMK A01
KSYI 051215Z AUTO 00000KT 10SM CLR M00/M01 A3009 RMK A01
KSYI 051155Z AUTO 24003KT 10SM CLR 01/M01 A3009 RMK A01
KSYI 051135Z AUTO 00000KT 10SM CLR 01/M01 A3008 RMK A01
KSYI 051115Z AUTO 11004KT 10SM CLR 02/M01 A3007 RMK A01
KSYI 051055Z AUTO 09005KT 10SM CLR 01/M01 A3006 RMK A01
KSYI 051035Z AUTO 09004KT 10SM CLR M00/M01 A3006 RMK A01
KSYI 051015Z AUTO 10004KT 10SM CLR M01/M02 A3006 RMK A01
KSYI 050955Z AUTO 00000KT 10SM CLR M01/M02 A3006 RMK A01
KSYI 050935Z AUTO 10005KT 10SM CLR M01/M02 A3006 RMK A01
KSYI 050915Z AUTO 11004KT 10SM CLR M01/M02 A3005 RMK A01
KSYI 050855Z AUTO 11004KT 10SM CLR M00/M02 A3005 RMK A01
KSYI 050835Z AUTO 11004KT 10SM CLR 00/M01 A3005 RMK A01
KSYI 050810Z AUTO 10005KT 10SM CLR M00/M01 A3005 RMK A01
KSYI 050755Z AUTO 11004KT 10SM CLR M01/M01 A3004 RMK A01
KSYI 050735Z AUTO 09003KT 10SM CLR M00/M01 A3004 RMK A01
KSYI 050715Z AUTO 00000KT 10SM CLR M00/M01 A3004 RMK A01
KSYI 050655Z AUTO 00000KT 10SM CLR 01/M01 A3004 RMK A01
KSYI 050615Z AUTO 00000KT 10SM CLR 00/M01 A3003 RMK A01
KSYI 050555Z AUTO 00000KT 10SM CLR M00/M02 A3003 RMK A01
KSYI 050535Z AUTO 21005KT 10SM CLR 00/M01 A3004 RMK A01
KSYI 050515Z AUTO 00000KT 10SM CLR M00/M01 A3003 RMK A01
KSYI 050455Z AUTO 00000KT 10SM CLR M00/M01 A3003 RMK A01
KSYI 050435Z AUTO 13003KT 10SM CLR 00/M01 A3002 RMK A01
KSYI 050415Z AUTO 00000KT 10SM CLR 00/M01 A3002 RMK A01
KSYI 050355Z AUTO 00000KT 10SM CLR 00/M01 A3001 RMK A01
KSYI 050335Z AUTO 00000KT 10SM CLR 01/M01 A3001 RMK A01
KSYI 050315Z AUTO 00000KT 10SM CLR 01/M01 A3000 RMK A01
KSYI 050255Z AUTO 10003KT 10SM CLR 01/M01 A2999 RMK A01
KSYI 050235Z AUTO 00000KT 10SM CLR 01/M00 A2998 RMK A01
KSYI 050215Z AUTO 00000KT 10SM CLR 01/M00 A2998 RMK A01
KSYI 050155Z AUTO 21003KT 10SM CLR 02/M00 A2997 RMK A01
KSYI 050135Z AUTO 00000KT 10SM CLR 02/00 A2997 RMK A01
KSYI 050115Z AUTO 00000KT 10SM CLR 03/00 A2997 RMK A01
KSYI 050055Z AUTO 00000KT 10SM CLR 03/M00 A2997 RMK A01
KSYI 050035Z AUTO 00000KT 10SM CLR 03/M00 A2997 RMK A01
KSYI 050015Z AUTO 00000KT 10SM CLR 04/00 A2996 RMK A01
KSYI 042355Z AUTO 26004KT 10SM CLR 08/M01 A2996 RMK A01
KSYI 042335Z AUTO 26005KT 10SM CLR 09/M01 A2995 RMK A01
KSYI 042315Z AUTO 27005KT 10SM CLR 09/M01 A2995 RMK A01
KSYI 042255Z AUTO 26006KT 10SM CLR 10/M01 A2994 RMK A01
KSYI 042235Z AUTO 26006KT 10SM CLR 11/M01 A2994 RMK A01
KSYI 042215Z AUTO 27005KT 10SM CLR 11/M01 A2993 RMK A01
KSYI 042155Z AUTO 00000KT 10SM CLR 12/M01 A2992 RMK A01
KSYI 042135Z AUTO 30006G11KT 10SM CLR 13/M02 A2992 RMK A01
KSYI 042115Z AUTO 29005KT 10SM CLR 14/M02 A2991 RMK A01
KSYI 042055Z AUTO 29005KT 10SM CLR 14/M01 A2991 RMK A01
KSYI 042035Z AUTO 26008KT 10SM CLR 14/M01 A2990 RMK A01
KSYI 042015Z AUTO VRB05G10KT 10SM CLR 14/M01 A2990 RMK A01
KSYI 041955Z AUTO 29004G13KT 10SM CLR 14/M01 A2989 RMK A01
KSYI 041935Z AUTO 32012KT 10SM CLR 14/M00 A2990 RMK A01
KSYI 041915Z AUTO 31009KT 10SM CLR 14/M00 A2990 RMK A01
KSYI 041855Z AUTO 31010KT 260V330 10SM CLR 14/00 A2990 RMK A01
KSYI 041835Z AUTO 29007G13KT 10SM CLR 13/00 A2990 RMK A01
KSYI 041815Z AUTO 27007G13KT 10SM CLR 13/01 A2990 RMK A01
KSYI 041755Z AUTO 29006G15KT 10SM CLR 12/01 A2991 RMK A01
KSYI 041735Z AUTO 29008KT 250V310 10SM CLR 12/02 A2992 RMK A01
KSYI 041715Z AUTO 26007KT 10SM CLR 11/02 A2994 RMK A01
KSYI 041655Z AUTO 26009KT 10SM CLR 11/02 A2994 RMK A01
KSYI 041635Z AUTO 29005G11KT 10SM CLR 10/01 A2994 RMK A01
KSYI 041615Z AUTO 29005G10KT 10SM CLR 09/02 A2994 RMK A01
KSYI 041555Z AUTO 27005KT 10SM CLR 09/02 A2994 RMK A01
KSYI 041535Z AUTO 27004KT 10SM CLR 08/02 A2994 RMK A01
KSYI 041515Z AUTO 27005KT 10SM CLR 06/02 A2993 RMK A01
KSYI 041455Z AUTO 25004KT 10SM CLR 06/02 A2994 RMK A01
KSYI 041435Z AUTO 00000KT 10SM CLR 05/02 A2992 RMK A01
KSYI 041415Z AUTO 00000KT 10SM CLR 03/01 A2992 RMK A01
KSYI 041355Z AUTO 00000KT 10SM CLR 01/00 A2992 RMK A01